Terminal Aerodrome Forecast
Issued by NWS Amarillo, TX

Home | Current Version | Previous Version | Text Only | Print | Product List | Glossary On
Versions: 1 2 3 4 5 6 7 8 9 10 11 12 13 14
000
FTUS44 KAMA 231543 AAA
TAFAMA
TAF AMD
KAMA 231543Z 2316/2412 23018KT P6SM BKN200 WS003/24039KT
     FM231700 25030G40KT P6SM SCT200
     FM240200 30018G27KT P6SM FEW200
     FM240800 31008KT P6SM FEW200=

USA.gov is the U.S. government's official web portal to all federal, state and local government web resources and services.